Time;durP1;ratioP1;P1;durP2;ratioP2;P2;SDS_P1;SDS_P2;PMS_P1;PMS_P2;Temp;Humidity;BMP_temperature;BMP_pressure;BME280_temperature;BME280_humidity;BME280_pressure;Samples;Min_cycle;Max_cycle;Signal;HPM_P1;HPM_P2
2023/03/09 00:00:27;;;;;;;14.27;10.30;;;2.00;99.90;;;;;;5096978;28;20217;-79
2023/03/09 00:02:53;;;;;;;16.27;10.77;;;2.00;99.90;;;;;;5096973;28;20171;-80
2023/03/09 00:05:20;;;;;;;15.90;10.80;;;2.00;99.90;;;;;;5097422;28;20177;-79
2023/03/09 00:07:46;;;;;;;15.43;10.67;;;2.00;99.90;;;;;;5097314;28;20628;-80
2023/03/09 00:10:13;;;;;;;15.53;10.60;;;2.00;99.90;;;;;;5079033;28;20273;-80
2023/03/09 00:12:39;;;;;;;16.23;10.87;;;2.00;99.90;;;;;;5097209;28;20316;-79
2023/03/09 00:15:05;;;;;;;13.77;9.60;;;2.00;99.90;;;;;;5077310;28;20189;-80
2023/03/09 00:17:30;;;;;;;14.10;9.90;;;2.00;99.90;;;;;;5096123;28;20194;-80
2023/03/09 00:20:06;;;;;;;17.80;10.57;;;2.00;99.90;;;;;;5095135;28;20193;-80
2023/03/09 00:22:31;;;;;;;15.07;10.03;;;2.00;99.90;;;;;;5076692;28;20193;-80
2023/03/09 00:24:57;;;;;;;15.83;10.97;;;2.10;99.90;;;;;;5095198;28;20542;-81
2023/03/09 00:27:22;;;;;;;16.40;10.73;;;2.10;99.90;;;;;;5076862;28;20171;-81
2023/03/09 00:29:48;;;;;;;15.40;10.17;;;2.00;99.90;;;;;;5095246;28;20308;-81
2023/03/09 00:32:13;;;;;;;14.27;10.20;;;2.10;99.90;;;;;;5094993;28;20204;-81
2023/03/09 00:34:39;;;;;;;14.20;10.23;;;2.10;99.90;;;;;;5076322;28;20174;-81
2023/03/09 00:37:05;;;;;;;15.00;10.90;;;2.10;99.90;;;;;;5094762;28;20178;-81
2023/03/09 00:39:30;;;;;;;14.13;10.67;;;2.10;99.90;;;;;;5076421;28;20182;-81
2023/03/09 00:41:56;;;;;;;15.93;10.80;;;2.10;99.90;;;;;;5094868;28;20644;-81
2023/03/09 00:44:22;;;;;;;15.00;11.07;;;2.10;99.90;;;;;;5076657;28;20673;-81
2023/03/09 00:46:48;;;;;;;17.47;11.70;;;2.10;99.90;;;;;;5094815;28;20167;-81
2023/03/09 00:49:14;;;;;;;18.27;11.93;;;2.10;99.90;;;;;;5076764;28;20167;-81
2023/03/09 00:51:41;;;;;;;16.67;11.37;;;2.10;99.90;;;;;;5079898;28;20513;-81
2023/03/09 00:54:09;;;;;;;16.23;11.27;;;2.10;99.90;;;;;;5098822;28;20650;-81
2023/03/09 00:56:35;;;;;;;17.47;11.80;;;2.10;99.90;;;;;;5098771;28;20204;-81
2023/03/09 00:59:00;;;;;;;18.07;11.53;;;2.10;99.90;;;;;;5098780;28;20245;-81
2023/03/09 01:01:27;;;;;;;18.47;12.23;;;2.10;99.90;;;;;;5098175;28;20639;-81
2023/03/09 01:03:53;;;;;;;17.67;11.93;;;2.10;99.90;;;;;;5099083;28;20202;-81
2023/03/09 01:06:19;;;;;;;15.93;11.43;;;2.10;99.90;;;;;;5098177;28;20176;-81
2023/03/09 01:08:47;;;;;;;15.17;11.20;;;2.10;99.90;;;;;;5080481;28;20190;-81
2023/03/09 01:11:15;;;;;;;16.87;11.80;;;2.10;99.90;;;;;;5098543;28;20688;-81
2023/03/09 01:13:40;;;;;;;15.13;10.43;;;2.10;99.90;;;;;;5098590;28;20170;-81
2023/03/09 01:16:07;;;;;;;17.10;11.53;;;2.10;99.90;;;;;;5098768;28;20177;-81
2023/03/09 01:18:33;;;;;;;15.83;10.60;;;2.10;99.90;;;;;;5079332;28;20186;-81
2023/03/09 01:21:00;;;;;;;15.93;10.33;;;2.10;99.90;;;;;;5097765;28;20237;-81
2023/03/09 01:23:26;;;;;;;16.80;11.13;;;2.00;99.90;;;;;;5097715;28;20167;-81
2023/03/09 01:25:51;;;;;;;18.20;11.27;;;2.10;99.90;;;;;;5098279;28;20173;-81
2023/03/09 01:28:17;;;;;;;18.27;12.10;;;2.10;99.90;;;;;;5079662;28;20170;-80
2023/03/09 01:30:43;;;;;;;19.00;12.17;;;2.00;99.90;;;;;;5098321;28;20202;-81
2023/03/09 01:33:08;;;;;;;17.93;12.50;;;2.00;99.90;;;;;;5097940;28;20180;-80
2023/03/09 01:35:34;;;;;;;16.83;11.87;;;2.10;99.90;;;;;;5079984;28;20249;-81
2023/03/09 01:37:59;;;;;;;17.87;11.67;;;2.10;99.90;;;;;;5098334;28;20181;-81
2023/03/09 01:40:27;;;;;;;17.07;11.67;;;2.00;99.90;;;;;;5098860;28;20190;-80
2023/03/09 01:43:00;;;;;;;19.90;11.93;;;2.00;99.90;;;;;;5080340;28;20498;-80
2023/03/09 01:45:26;;;;;;;17.67;11.70;;;2.10;99.90;;;;;;5079521;28;20200;-81
2023/03/09 01:47:52;;;;;;;19.67;12.10;;;2.00;99.90;;;;;;5098298;28;20222;-81
2023/03/09 01:50:23;;;;;;;19.70;12.67;;;2.00;99.90;;;;;;5098052;28;20210;-80
2023/03/09 01:52:51;;;;;;;19.53;12.00;;;2.00;99.90;;;;;;5098490;28;20162;-80
2023/03/09 01:55:22;;;;;;;20.43;13.07;;;2.00;99.90;;;;;;5080035;28;20180;-80
2023/03/09 01:57:57;;;;;;;18.53;11.67;;;2.00;99.90;;;;;;5098102;28;20244;-81
2023/03/09 02:00:25;;;;;;;21.40;13.30;;;2.00;99.90;;;;;;5079489;28;20190;-81
2023/03/09 02:02:55;;;;;;;25.63;14.30;;;2.00;99.90;;;;;;5097533;28;20167;-80
2023/03/09 02:05:28;;;;;;;24.23;15.07;;;2.10;99.90;;;;;;5079514;28;20193;-80
2023/03/09 02:07:54;;;;;;;24.50;14.13;;;2.10;99.90;;;;;;5080237;28;20173;-80
2023/03/09 02:10:32;;;;;;;30.07;15.27;;;2.10;99.90;;;;;;5098222;28;20183;-80
2023/03/09 02:13:01;;;;;;;27.60;14.60;;;2.10;99.90;;;;;;5079946;28;20170;-80
2023/03/09 02:15:27;;;;;;;33.47;17.73;;;2.10;99.90;;;;;;5080288;28;20179;-80
2023/03/09 02:17:53;;;;;;;33.83;17.40;;;2.00;99.90;;;;;;5098725;28;20607;-80
2023/03/09 02:20:21;;;;;;;32.73;17.90;;;2.10;99.90;;;;;;5098391;28;20198;-80
2023/03/09 02:22:48;;;;;;;33.63;17.80;;;2.10;99.90;;;;;;5100091;28;20170;-80
2023/03/09 02:25:22;;;;;;;32.87;17.03;;;2.10;99.90;;;;;;5098915;28;20193;-80
2023/03/09 02:27:49;;;;;;;32.20;16.37;;;2.10;99.90;;;;;;5080697;28;20162;-80
2023/03/09 02:30:15;;;;;;;31.23;17.77;;;2.10;99.90;;;;;;5099283;28;20204;-80
2023/03/09 02:32:40;;;;;;;31.47;16.53;;;2.10;99.90;;;;;;5099102;28;20646;-80
2023/03/09 02:35:09;;;;;;;34.30;17.97;;;2.10;99.90;;;;;;5081101;28;20206;-80
2023/03/09 02:37:37;;;;;;;33.67;18.87;;;2.10;99.90;;;;;;5099367;28;20171;-80
2023/03/09 02:40:17;;;;;;;28.33;17.00;;;2.10;99.90;;;;;;5100081;28;20189;-80
2023/03/09 02:42:47;;;;;;;40.33;20.23;;;2.10;99.90;;;;;;5080844;28;20236;-80
2023/03/09 02:45:17;;;;;;;40.57;22.60;;;2.10;99.90;;;;;;5099276;28;20174;-80
2023/03/09 02:47:42;;;;;;;39.50;21.53;;;2.10;99.90;;;;;;5099402;28;20185;-80
2023/03/09 02:50:09;;;;;;;40.07;21.07;;;2.10;99.90;;;;;;5084155;28;20728;-80
2023/03/09 02:52:38;;;;;;;41.93;21.83;;;2.10;99.90;;;;;;5079942;28;20288;-80
2023/03/09 02:55:05;;;;;;;42.53;21.03;;;2.10;99.90;;;;;;5097485;28;20246;-80
2023/03/09 02:57:31;;;;;;;36.23;20.53;;;2.10;99.90;;;;;;5097774;28;20186;-80
2023/03/09 02:59:56;;;;;;;42.60;21.80;;;2.10;99.90;;;;;;5099051;28;20205;-80
2023/03/09 03:02:22;;;;;;;38.37;20.07;;;2.10;99.90;;;;;;5098671;28;20289;-80
2023/03/09 03:04:47;;;;;;;41.77;21.83;;;2.10;99.90;;;;;;5097725;28;20253;-81
2023/03/09 03:07:13;;;;;;;40.60;22.30;;;2.10;99.90;;;;;;5097966;28;20173;-80
2023/03/09 03:09:38;;;;;;;39.30;21.10;;;2.10;99.90;;;;;;5097673;28;20264;-81
2023/03/09 03:12:04;;;;;;;41.57;21.13;;;2.10;99.90;;;;;;5097324;28;20206;-80
2023/03/09 03:14:30;;;;;;;39.47;20.87;;;2.10;99.90;;;;;;5096359;28;20224;-80
2023/03/09 03:16:55;;;;;;;39.73;21.60;;;2.10;99.90;;;;;;5097118;28;20186;-81
2023/03/09 03:19:22;;;;;;;38.80;20.70;;;2.10;99.90;;;;;;5097817;28;20174;-80
2023/03/09 03:21:48;;;;;;;35.23;20.03;;;2.10;99.90;;;;;;5078807;28;20194;-80
2023/03/09 03:24:14;;;;;;;43.83;21.60;;;2.10;99.90;;;;;;5096991;28;20171;-80
2023/03/09 03:26:40;;;;;;;38.43;20.10;;;2.10;99.90;;;;;;5078392;28;20177;-80
2023/03/09 03:29:05;;;;;;;40.57;20.43;;;2.10;99.90;;;;;;5096105;28;20257;-80
2023/03/09 03:31:31;;;;;;;37.90;20.43;;;2.10;99.90;;;;;;5097308;28;20536;-80
2023/03/09 03:33:57;;;;;;;34.17;19.97;;;2.10;99.90;;;;;;5097618;28;20182;-80
2023/03/09 03:36:23;;;;;;;37.53;20.20;;;2.10;99.90;;;;;;5097112;28;20494;-80
2023/03/09 03:38:48;;;;;;;37.67;20.50;;;2.10;99.90;;;;;;5097010;28;20184;-80
2023/03/09 03:41:14;;;;;;;33.73;19.60;;;2.10;99.90;;;;;;5096529;28;20246;-80
2023/03/09 03:43:40;;;;;;;36.40;20.77;;;2.10;99.90;;;;;;5096444;28;20169;-80
2023/03/09 03:46:06;;;;;;;39.97;20.63;;;2.10;99.90;;;;;;5097094;28;20170;-80
2023/03/09 03:48:31;;;;;;;31.80;18.97;;;2.10;99.90;;;;;;5097280;28;20167;-80
2023/03/09 03:50:57;;;;;;;32.87;18.20;;;2.10;99.90;;;;;;5078015;28;20198;-80
2023/03/09 03:53:22;;;;;;;34.83;18.87;;;2.10;99.90;;;;;;5079577;28;20245;-80
2023/03/09 03:55:48;;;;;;;32.73;18.93;;;2.10;99.90;;;;;;5096801;28;20259;-80
2023/03/09 03:58:13;;;;;;;32.00;17.17;;;2.10;99.90;;;;;;5096980;28;20174;-80
2023/03/09 04:00:39;;;;;;;31.77;17.37;;;2.10;99.90;;;;;;5096956;28;20634;-80
2023/03/09 04:03:05;;;;;;;34.30;19.07;;;2.10;99.90;;;;;;5096600;28;20572;-80
2023/03/09 04:05:31;;;;;;;34.10;18.33;;;2.10;99.90;;;;;;5078634;28;20174;-80
2023/03/09 04:07:56;;;;;;;32.27;18.43;;;2.10;99.90;;;;;;5078926;28;20166;-80
2023/03/09 04:10:23;;;;;;;35.30;18.73;;;2.10;99.90;;;;;;5078704;28;20197;-80
2023/03/09 04:12:49;;;;;;;35.27;18.60;;;2.10;99.90;;;;;;5079013;28;20231;-80
2023/03/09 04:15:15;;;;;;;31.93;18.37;;;2.10;99.90;;;;;;5096579;28;20224;-80
2023/03/09 04:17:41;;;;;;;33.97;19.00;;;2.10;99.90;;;;;;5097045;28;20562;-80
2023/03/09 04:20:08;;;;;;;34.63;18.07;;;2.10;99.90;;;;;;5078483;28;20200;-80
2023/03/09 04:22:33;;;;;;;29.87;17.10;;;2.10;99.90;;;;;;5096844;28;20201;-80
2023/03/09 04:24:59;;;;;;;29.33;16.83;;;2.10;99.90;;;;;;5099458;28;20170;-80
2023/03/09 04:27:24;;;;;;;32.20;18.90;;;2.20;99.90;;;;;;5085670;28;20174;-80
2023/03/09 04:29:50;;;;;;;31.73;18.30;;;2.10;99.90;;;;;;5085218;28;20656;-80
2023/03/09 04:32:15;;;;;;;31.70;18.30;;;2.10;99.90;;;;;;5103279;28;20249;-80
2023/03/09 04:34:41;;;;;;;29.17;18.13;;;2.10;99.90;;;;;;5103928;28;20562;-80
2023/03/09 04:37:07;;;;;;;29.70;18.00;;;2.10;99.90;;;;;;5103669;28;20684;-80
2023/03/09 04:39:32;;;;;;;32.20;18.30;;;2.10;99.90;;;;;;5085603;28;20568;-80
2023/03/09 04:41:58;;;;;;;29.50;16.97;;;2.10;99.90;;;;;;5103343;28;20189;-80
2023/03/09 04:44:23;;;;;;;32.97;17.60;;;2.20;99.90;;;;;;5103563;28;20262;-80
2023/03/09 04:46:49;;;;;;;30.17;17.60;;;2.10;99.90;;;;;;5103374;28;20661;-80
2023/03/09 04:49:14;;;;;;;33.17;17.77;;;2.10;99.90;;;;;;5085364;28;20219;-80
2023/03/09 04:51:40;;;;;;;33.30;18.17;;;2.20;99.90;;;;;;5103804;28;20281;-80
2023/03/09 04:54:05;;;;;;;30.73;17.70;;;2.10;99.90;;;;;;5085371;28;20178;-80
2023/03/09 04:56:31;;;;;;;33.90;19.27;;;2.10;99.90;;;;;;5103947;28;20259;-80
2023/03/09 04:58:56;;;;;;;35.40;18.43;;;2.10;99.90;;;;;;5085530;28;20189;-80
2023/03/09 05:01:22;;;;;;;33.87;18.83;;;2.10;99.90;;;;;;5103113;28;20205;-80
2023/03/09 05:03:47;;;;;;;37.70;20.37;;;2.20;99.90;;;;;;5103451;28;20178;-80
2023/03/09 05:06:13;;;;;;;32.93;19.03;;;2.20;99.90;;;;;;5084936;28;20178;-80
2023/03/09 05:08:39;;;;;;;36.47;20.37;;;2.10;99.90;;;;;;5104301;28;20241;-80
2023/03/09 05:11:05;;;;;;;40.37;20.50;;;2.20;99.90;;;;;;5103214;28;20194;-80
2023/03/09 05:13:30;;;;;;;34.63;19.50;;;2.20;99.90;;;;;;5103572;28;20219;-81
2023/03/09 05:15:56;;;;;;;35.43;18.87;;;2.10;99.90;;;;;;5084985;28;20181;-81
2023/03/09 05:18:21;;;;;;;36.83;21.00;;;2.10;99.90;;;;;;5085036;28;20711;-81
2023/03/09 05:20:47;;;;;;;34.73;18.70;;;2.20;99.90;;;;;;5103995;28;20665;-81
2023/03/09 05:23:12;;;;;;;33.87;18.30;;;2.10;99.90;;;;;;5086164;28;20597;-80
2023/03/09 05:25:38;;;;;;;33.50;18.63;;;2.20;99.90;;;;;;5104581;28;20246;-80
2023/03/09 05:28:04;;;;;;;34.53;18.00;;;2.20;99.90;;;;;;5086923;28;20181;-80
2023/03/09 05:30:30;;;;;;;35.63;19.90;;;2.10;99.90;;;;;;5103402;28;20209;-80
2023/03/09 05:32:56;;;;;;;47.67;20.03;;;2.10;99.90;;;;;;5103584;28;20176;-80
2023/03/09 05:35:22;;;;;;;37.27;18.93;;;2.10;99.90;;;;;;5103499;28;20170;-80
2023/03/09 05:37:47;;;;;;;39.97;19.57;;;2.20;99.90;;;;;;5081614;28;20263;-80
2023/03/09 05:40:14;;;;;;;36.73;18.63;;;2.20;99.90;;;;;;5080485;28;20223;-81
2023/03/09 05:42:41;;;;;;;42.37;21.07;;;2.20;99.90;;;;;;5099535;28;20196;-80
2023/03/09 05:45:08;;;;;;;38.37;19.67;;;2.20;99.90;;;;;;5098929;28;20186;-81
2023/03/09 05:47:34;;;;;;;36.53;18.83;;;2.20;99.90;;;;;;5100276;28;20538;-81
2023/03/09 05:50:00;;;;;;;36.27;20.20;;;2.20;99.90;;;;;;5099589;28;20174;-81
2023/03/09 05:52:25;;;;;;;39.37;20.63;;;2.10;99.90;;;;;;5099065;28;20194;-81
2023/03/09 05:54:51;;;;;;;40.93;21.27;;;2.20;99.90;;;;;;5081639;28;20178;-80
2023/03/09 05:57:16;;;;;;;39.63;20.23;;;2.20;99.90;;;;;;5099431;28;20672;-80
2023/03/09 05:59:42;;;;;;;36.50;18.47;;;2.20;99.90;;;;;;5080888;28;20174;-80
2023/03/09 06:02:08;;;;;;;38.40;19.30;;;2.20;99.90;;;;;;5098679;28;20541;-78
2023/03/09 06:04:34;;;;;;;40.23;19.53;;;2.20;99.90;;;;;;5079844;28;20182;-79
2023/03/09 06:07:00;;;;;;;36.83;19.17;;;2.20;99.90;;;;;;5079404;28;20185;-78
2023/03/09 06:09:25;;;;;;;38.30;19.97;;;2.20;99.90;;;;;;5079405;28;20171;-78
2023/03/09 06:11:51;;;;;;;35.23;18.47;;;2.20;99.90;;;;;;5079254;28;20222;-77
2023/03/09 06:14:17;;;;;;;37.83;18.93;;;2.20;99.90;;;;;;5094521;28;20170;-77
2023/03/09 06:16:43;;;;;;;40.23;20.07;;;2.20;99.90;;;;;;5094835;28;20213;-78
2023/03/09 06:19:09;;;;;;;38.37;19.87;;;2.20;99.90;;;;;;5096792;28;20162;-78
2023/03/09 06:21:35;;;;;;;34.90;18.87;;;2.20;99.90;;;;;;5079465;28;20213;-79
2023/03/09 06:24:00;;;;;;;37.87;19.53;;;2.20;99.90;;;;;;5097844;28;20170;-79
2023/03/09 06:26:26;;;;;;;34.47;18.50;;;2.20;99.90;;;;;;5095588;28;20259;-77
2023/03/09 06:28:52;;;;;;;35.10;17.83;;;2.20;99.90;;;;;;5077654;28;20179;-78
2023/03/09 06:31:18;;;;;;;37.40;19.27;;;2.30;99.90;;;;;;5096863;28;20605;-78
2023/03/09 06:33:45;;;;;;;36.57;19.73;;;2.30;99.90;;;;;;5098222;28;20170;-79
2023/03/09 06:36:14;;;;;;;40.30;20.77;;;2.30;99.90;;;;;;5100364;28;20610;-80
2023/03/09 06:38:40;;;;;;;41.13;19.60;;;2.30;99.90;;;;;;5083634;28;20212;-80
2023/03/09 06:41:06;;;;;;;41.47;21.03;;;2.30;99.90;;;;;;5083971;28;20209;-79
2023/03/09 06:43:31;;;;;;;42.13;22.00;;;2.30;99.90;;;;;;5086529;28;20660;-80
2023/03/09 06:45:57;;;;;;;44.00;21.77;;;2.30;99.90;;;;;;5103303;28;20166;-80
2023/03/09 06:48:22;;;;;;;45.57;21.50;;;2.30;99.90;;;;;;5084553;28;20162;-79
2023/03/09 06:50:48;;;;;;;44.63;21.43;;;2.30;99.90;;;;;;5103618;28;20196;-79
2023/03/09 06:53:15;;;;;;;46.60;22.10;;;2.30;99.90;;;;;;5085665;28;20201;-80
2023/03/09 06:55:41;;;;;;;40.03;21.07;;;2.40;99.90;;;;;;5103459;28;20166;-79
2023/03/09 06:58:07;;;;;;;44.07;21.63;;;2.40;99.90;;;;;;5103602;28;20523;-80
2023/03/09 07:00:37;;;;;;;45.70;22.90;;;2.40;99.90;;;;;;5090095;28;20198;-80
2023/03/09 07:03:03;;;;;;;45.57;22.03;;;2.50;99.90;;;;;;5103237;28;20178;-79
2023/03/09 07:05:29;;;;;;;45.77;22.57;;;2.50;99.90;;;;;;5102194;28;20228;-79
2023/03/09 07:07:55;;;;;;;43.30;21.17;;;2.50;99.90;;;;;;5102569;28;20178;-80
2023/03/09 07:10:20;;;;;;;45.63;22.27;;;2.50;99.90;;;;;;5101582;28;20188;-80
2023/03/09 07:12:48;;;;;;;46.50;22.87;;;2.50;99.90;;;;;;5102201;28;20649;-79
2023/03/09 07:15:14;;;;;;;45.57;21.03;;;2.50;99.90;;;;;;5102068;28;20171;-80
2023/03/09 07:17:40;;;;;;;42.57;20.20;;;2.60;99.90;;;;;;5082207;28;20190;-79
2023/03/09 07:20:06;;;;;;;49.23;23.17;;;2.60;99.90;;;;;;5084102;28;20228;-80
2023/03/09 07:22:32;;;;;;;43.73;20.93;;;2.60;99.90;;;;;;5101342;28;20210;-79
2023/03/09 07:24:57;;;;;;;39.27;20.33;;;2.60;99.90;;;;;;5083718;28;20173;-80
2023/03/09 07:27:23;;;;;;;48.00;22.17;;;2.60;99.90;;;;;;5102414;28;20185;-79
2023/03/09 07:29:48;;;;;;;46.17;22.87;;;2.60;99.90;;;;;;5102394;28;20178;-79
2023/03/09 07:32:15;;;;;;;42.50;20.87;;;2.60;99.90;;;;;;5101856;28;20204;-79
2023/03/09 07:34:40;;;;;;;45.50;20.40;;;2.60;99.90;;;;;;5083690;28;20182;-79
2023/03/09 07:37:06;;;;;;;46.83;21.17;;;2.70;99.90;;;;;;5101784;28;20683;-79
2023/03/09 07:39:32;;;;;;;48.43;21.63;;;2.70;99.90;;;;;;5082545;28;20186;-79
2023/03/09 07:41:58;;;;;;;43.10;21.73;;;2.80;99.90;;;;;;5081457;28;20217;-79
2023/03/09 07:44:23;;;;;;;45.53;21.93;;;2.70;99.90;;;;;;5082451;28;20190;-79
2023/03/09 07:46:49;;;;;;;40.07;20.90;;;2.70;99.90;;;;;;5099989;28;20597;-79
2023/03/09 07:49:14;;;;;;;45.53;20.80;;;2.70;99.90;;;;;;5101190;28;20177;-79
2023/03/09 07:51:40;;;;;;;45.33;21.10;;;2.70;99.90;;;;;;5081886;28;20208;-79
2023/03/09 07:54:07;;;;;;;44.80;22.13;;;2.80;99.90;;;;;;5100503;28;20252;-79
2023/03/09 07:56:33;;;;;;;43.33;20.30;;;2.80;99.90;;;;;;5100193;28;20185;-79
2023/03/09 07:58:58;;;;;;;45.37;21.90;;;2.80;99.90;;;;;;5100549;28;20178;-79
2023/03/09 08:01:24;;;;;;;44.73;20.67;;;2.80;99.90;;;;;;5100046;28;20204;-79
2023/03/09 08:03:50;;;;;;;41.63;21.17;;;2.80;99.90;;;;;;5100453;28;20166;-79
2023/03/09 08:06:16;;;;;;;45.20;22.10;;;2.90;99.90;;;;;;5101182;28;20646;-79
2023/03/09 08:08:42;;;;;;;45.30;21.57;;;2.90;99.90;;;;;;5082439;28;20174;-79
2023/03/09 08:11:08;;;;;;;41.23;20.53;;;2.90;99.90;;;;;;5079521;28;20201;-80
2023/03/09 08:13:34;;;;;;;44.93;20.67;;;2.90;99.90;;;;;;5099608;28;20209;-79
2023/03/09 08:16:04;;;;;;;44.97;20.93;;;2.90;99.90;;;;;;5080192;28;20265;-79
2023/03/09 08:18:29;;;;;;;42.97;20.77;;;2.90;99.90;;;;;;5099141;28;20198;-79
2023/03/09 08:21:02;;;;;;;45.30;19.80;;;3.00;99.90;;;;;;5082115;28;20209;-79
2023/03/09 08:23:27;;;;;;;44.63;21.73;;;2.90;99.90;;;;;;5101935;28;20150;-79
2023/03/09 08:25:53;;;;;;;43.27;21.13;;;3.00;99.90;;;;;;5101101;28;20181;-80
2023/03/09 08:28:19;;;;;;;43.23;20.33;;;3.00;99.90;;;;;;5084175;28;20166;-79
2023/03/09 08:30:45;;;;;;;43.77;19.93;;;3.00;99.90;;;;;;5101974;28;20193;-79
2023/03/09 08:33:11;;;;;;;42.57;19.77;;;3.10;99.90;;;;;;5083009;28;20178;-79
2023/03/09 08:35:37;;;;;;;43.77;20.00;;;3.10;99.90;;;;;;5102132;28;20166;-79
2023/03/09 08:38:03;;;;;;;46.10;22.03;;;3.10;99.90;;;;;;5084141;28;20185;-79
2023/03/09 08:40:29;;;;;;;44.03;20.80;;;3.10;99.90;;;;;;5103015;28;20568;-79
2023/03/09 08:42:54;;;;;;;40.13;20.80;;;3.10;99.90;;;;;;5102591;28;20245;-79
2023/03/09 08:45:20;;;;;;;46.60;20.87;;;3.10;99.90;;;;;;5101890;28;20260;-79
2023/03/09 08:47:46;;;;;;;42.17;21.23;;;3.20;99.90;;;;;;5102546;28;20179;-80
2023/03/09 08:50:12;;;;;;;48.17;20.80;;;3.20;99.90;;;;;;5101633;28;20665;-79
2023/03/09 08:52:39;;;;;;;42.83;20.90;;;3.10;99.90;;;;;;5083478;28;20194;-80
2023/03/09 08:55:07;;;;;;;40.40;20.57;;;3.20;99.90;;;;;;5101804;28;20170;-80
2023/03/09 08:57:33;;;;;;;42.27;20.10;;;3.20;99.90;;;;;;5102483;28;20175;-80
2023/03/09 08:59:59;;;;;;;43.37;19.77;;;3.20;99.90;;;;;;5102138;28;20198;-80
2023/03/09 09:02:24;;;;;;;42.13;20.70;;;3.30;99.90;;;;;;5101705;28;20182;-80
2023/03/09 09:04:50;;;;;;;45.53;21.90;;;3.40;99.90;;;;;;5083517;28;20174;-79
2023/03/09 09:07:17;;;;;;;38.83;20.80;;;3.40;99.90;;;;;;5102423;28;20521;-80
2023/03/09 09:09:43;;;;;;;45.03;21.63;;;3.40;99.90;;;;;;5083101;28;20171;-80
2023/03/09 09:12:10;;;;;;;44.07;20.87;;;3.40;99.90;;;;;;5085025;28;20186;-80
2023/03/09 09:14:37;;;;;;;41.93;21.93;;;3.50;99.90;;;;;;5106341;28;20193;-79
2023/03/09 09:17:08;;;;;;;39.43;19.63;;;3.50;99.90;;;;;;5087366;28;20208;-79
2023/03/09 09:19:34;;;;;;;41.90;20.93;;;3.40;99.90;;;;;;5088492;28;20169;-80
2023/03/09 09:22:00;;;;;;;46.03;22.37;;;3.50;99.90;;;;;;5088142;28;20205;-79
2023/03/09 09:24:29;;;;;;;43.27;20.90;;;3.40;99.90;;;;;;5107449;28;20170;-79
2023/03/09 09:26:55;;;;;;;43.93;20.97;;;3.40;99.90;;;;;;5088634;28;20178;-80
2023/03/09 09:29:21;;;;;;;45.77;22.23;;;3.50;99.90;;;;;;5089272;28;20174;-79
2023/03/09 09:31:48;;;;;;;53.10;23.60;;;3.50;99.90;;;;;;5104790;28;20337;-79
2023/03/09 09:34:13;;;;;;;43.53;20.97;;;3.60;99.90;;;;;;5086914;28;20261;-80
2023/03/09 09:36:40;;;;;;;42.60;21.07;;;3.50;99.90;;;;;;5105062;28;20602;-80
2023/03/09 09:39:06;;;;;;;43.33;21.47;;;3.60;99.90;;;;;;5105881;28;20209;-80
2023/03/09 09:41:42;;;;;;;44.40;22.30;;;3.60;99.90;;;;;;5104845;28;20202;-80
2023/03/09 09:44:24;;;;;;;44.70;21.37;;;3.60;99.90;;;;;;5104494;28;20246;-79
2023/03/09 09:46:52;;;;;;;42.63;21.93;;;3.70;99.90;;;;;;5085903;28;20690;-79
2023/03/09 09:49:21;;;;;;;46.47;22.30;;;3.70;99.90;;;;;;5085654;28;20209;-80
2023/03/09 09:52:05;;;;;;;49.23;22.57;;;3.70;99.90;;;;;;5104786;28;20222;-80
2023/03/09 09:54:56;;;;;;;49.77;23.00;;;3.70;99.90;;;;;;5104728;28;20185;-79
2023/03/09 09:57:38;;;;;;;45.73;22.47;;;3.80;99.90;;;;;;5085663;28;20541;-79
2023/03/09 10:00:06;;;;;;;53.67;23.10;;;3.80;99.90;;;;;;5104333;28;20218;-80
2023/03/09 10:02:42;;;;;;;51.50;24.07;;;3.90;99.90;;;;;;5104130;28;20186;-79
2023/03/09 10:05:19;;;;;;;56.43;25.07;;;4.00;99.90;;;;;;5104876;28;20165;-79
2023/03/09 10:07:45;;;;;;;49.13;23.43;;;3.90;99.90;;;;;;5105775;28;20180;-79
2023/03/09 10:10:20;;;;;;;50.80;24.33;;;3.90;99.90;;;;;;5104665;28;20166;-79
2023/03/09 10:12:46;;;;;;;55.83;26.17;;;3.80;99.90;;;;;;5104426;28;20168;-79
2023/03/09 10:15:29;;;;;;;52.53;24.97;;;3.80;99.90;;;;;;5085502;28;20198;-80
2023/03/09 10:18:10;;;;;;;52.87;25.07;;;3.80;99.90;;;;;;5085494;28;20314;-80
2023/03/09 10:20:49;;;;;;;53.47;25.70;;;3.80;99.90;;;;;;5103600;28;20190;-80
2023/03/09 10:23:28;;;;;;;59.33;25.70;;;3.90;99.90;;;;;;5084879;28;20202;-79
2023/03/09 10:26:28;;;;;;;53.47;25.57;;;3.90;99.90;;;;;;5103610;28;20186;-80
2023/03/09 10:29:00;;;;;;;54.43;24.43;;;3.90;99.90;;;;;;5103504;28;20159;-79
2023/03/09 10:31:37;;;;;;;49.43;24.80;;;3.90;99.90;;;;;;5103841;28;20749;-79
2023/03/09 10:34:13;;;;;;;60.27;26.90;;;4.00;99.90;;;;;;5085504;28;20166;-79
2023/03/09 10:37:00;;;;;;;65.50;27.73;;;4.00;99.90;;;;;;5103771;28;20868;-79
2023/03/09 10:39:30;;;;;;;55.13;26.93;;;4.10;99.90;;;;;;5085253;28;20192;-79
2023/03/09 10:42:00;;;;;;;61.63;26.90;;;4.10;99.90;;;;;;5085617;28;20277;-79
2023/03/09 10:44:27;;;;;;;59.80;27.70;;;4.10;99.90;;;;;;5104270;28;20527;-79
2023/03/09 10:46:59;;;;;;;55.20;26.43;;;4.20;99.90;;;;;;5086795;28;20174;-79
2023/03/09 10:49:26;;;;;;;58.00;25.47;;;4.20;99.90;;;;;;5103955;28;20166;-79
2023/03/09 10:52:06;;;;;;;57.43;28.57;;;4.10;99.90;;;;;;5085152;28;20201;-79
2023/03/09 10:54:36;;;;;;;56.60;28.00;;;4.20;99.90;;;;;;5102549;28;20177;-79
2023/03/09 10:57:19;;;;;;;62.40;28.03;;;4.20;99.90;;;;;;5084651;28;20253;-80
2023/03/09 11:00:01;;;;;;;75.60;32.27;;;4.30;99.90;;;;;;5083634;28;20178;-80
2023/03/09 11:02:30;;;;;;;81.13;32.77;;;4.40;99.90;;;;;;5102610;28;20199;-80
2023/03/09 11:04:56;;;;;;;79.50;33.00;;;4.50;99.90;;;;;;5084571;28;20182;-79
2023/03/09 11:07:31;;;;;;;82.00;34.10;;;4.60;99.90;;;;;;5102808;28;20162;-79
2023/03/09 11:09:57;;;;;;;79.43;32.60;;;4.60;99.90;;;;;;5102807;28;20166;-80
2023/03/09 11:12:25;;;;;;;77.87;34.07;;;4.70;99.90;;;;;;5102630;28;20253;-80
2023/03/09 11:14:56;;;;;;;77.37;33.57;;;4.70;99.90;;;;;;5102939;28;20172;-79
2023/03/09 11:17:40;;;;;;;69.20;30.80;;;4.70;99.90;;;;;;5084408;28;20710;-79
2023/03/09 11:20:18;;;;;;;75.20;32.00;;;4.80;99.90;;;;;;5102567;28;20197;-79
2023/03/09 11:23:11;;;;;;;70.93;33.90;;;4.90;99.90;;;;;;5102292;28;20166;-79
2023/03/09 11:26:03;;;;;;;66.50;29.77;;;5.00;99.90;;;;;;5083478;28;20174;-80
2023/03/09 11:28:50;;;;;;;73.83;30.40;;;5.10;99.90;;;;;;5101283;28;20154;-80
2023/03/09 11:31:18;;;;;;;65.97;31.57;;;5.00;99.90;;;;;;5083562;28;20201;-80
2023/03/09 11:33:46;;;;;;;60.77;28.43;;;5.00;99.90;;;;;;5101034;28;20266;-79
2023/03/09 11:36:17;;;;;;;59.40;28.17;;;5.00;99.90;;;;;;5082803;28;20185;-80
2023/03/09 11:38:44;;;;;;;55.10;26.87;;;5.10;99.90;;;;;;5102100;28;20253;-79
2023/03/09 11:41:19;;;;;;;55.77;27.03;;;5.20;99.90;;;;;;5101831;28;20206;-80
2023/03/09 11:43:47;;;;;;;51.20;25.40;;;5.20;99.90;;;;;;5101901;28;20192;-79
2023/03/09 11:46:16;;;;;;;48.33;23.43;;;5.20;99.90;;;;;;5102342;28;20553;-80
2023/03/09 11:48:43;;;;;;;46.00;23.17;;;5.20;99.90;;;;;;5101464;28;20181;-80
2023/03/09 11:51:30;;;;;;;55.47;26.07;;;5.20;99.90;;;;;;5083586;28;20267;-79
2023/03/09 11:54:18;;;;;;;45.53;22.93;;;5.30;99.90;;;;;;5083869;28;20166;-79
2023/03/09 11:56:45;;;;;;;45.97;23.27;;;5.30;99.90;;;;;;5083599;28;20241;-80
2023/03/09 11:59:37;;;;;;;50.53;24.80;;;5.40;99.90;;;;;;5100178;28;20166;-80
2023/03/09 12:02:21;;;;;;;49.17;23.40;;;5.40;99.90;;;;;;5081898;28;20568;-80
2023/03/09 12:04:52;;;;;;;49.63;24.53;;;5.40;99.90;;;;;;5100918;28;20512;-79
2023/03/09 12:07:38;;;;;;;49.60;24.33;;;5.50;99.90;;;;;;5081949;28;20171;-80
2023/03/09 12:10:28;;;;;;;46.10;23.60;;;5.50;99.90;;;;;;5100643;28;20280;-80
2023/03/09 12:13:17;;;;;;;54.40;26.33;;;5.50;99.90;;;;;;5100702;28;20167;-79
2023/03/09 12:16:00;;;;;;;50.53;25.53;;;5.50;99.90;;;;;;5081745;28;20181;-79
2023/03/09 12:18:33;;;;;;;53.37;26.00;;;5.50;99.90;;;;;;5099754;28;20184;-80
2023/03/09 12:21:02;;;;;;;52.77;26.63;;;5.50;99.90;;;;;;5081927;28;20202;-80
2023/03/09 12:23:39;;;;;;;50.53;25.30;;;5.50;99.90;;;;;;5099943;28;20231;-79
2023/03/09 12:26:29;;;;;;;54.07;26.13;;;5.50;99.90;;;;;;5100391;28;20169;-80
2023/03/09 12:29:00;;;;;;;48.77;23.57;;;5.60;99.90;;;;;;5099959;28;20211;-80
2023/03/09 12:31:34;;;;;;;53.87;24.70;;;5.50;99.90;;;;;;5082258;28;20208;-80
2023/03/09 12:34:00;;;;;;;52.97;24.60;;;5.60;99.90;;;;;;5082661;28;20197;-80
2023/03/09 12:36:29;;;;;;;53.00;25.30;;;5.70;99.90;;;;;;5099683;28;20532;-79
2023/03/09 12:39:23;;;;;;;46.20;24.90;;;5.70;99.90;;;;;;5081989;28;20201;-80
2023/03/09 12:42:07;;;;;;;52.37;25.10;;;5.80;99.90;;;;;;5098999;28;20209;-79